createdAt,value
2023-04-04T00:01:52.653Z,3.00
2023-04-04T00:04:21.169Z,3.33
2023-04-04T00:06:49.584Z,2.87
2023-04-04T00:09:19.404Z,2.90
2023-04-04T00:11:48.168Z,2.87
2023-04-04T00:14:16.752Z,2.93
2023-04-04T00:16:45.238Z,2.73
2023-04-04T00:19:18.342Z,2.93
2023-04-04T00:21:47.045Z,3.20
2023-04-04T00:24:15.258Z,3.23
2023-04-04T00:26:46.712Z,3.50
2023-04-04T00:29:15.887Z,2.73
2023-04-04T00:31:44.201Z,2.70
2023-04-04T00:34:12.453Z,2.83
2023-04-04T00:36:40.942Z,2.67
2023-04-04T00:39:09.196Z,3.07
2023-04-04T00:41:37.836Z,3.60
2023-04-04T00:44:07.877Z,2.70
2023-04-04T00:46:36.618Z,3.00
2023-04-04T00:49:07.781Z,2.90
2023-04-04T00:51:36.858Z,2.70
2023-04-04T00:54:06.147Z,3.10
2023-04-04T00:56:37.601Z,3.00
2023-04-04T00:59:08.135Z,2.90
2023-04-04T01:01:38.200Z,3.47
2023-04-04T01:04:08.647Z,3.37
2023-04-04T01:06:40.280Z,3.80
2023-04-04T01:09:08.653Z,3.30
2023-04-04T01:11:37.679Z,2.97
2023-04-04T01:14:07.493Z,3.27
2023-04-04T01:16:36.534Z,3.33
2023-04-04T01:19:11.684Z,3.43
2023-04-04T01:21:41.587Z,3.40
2023-04-04T01:24:11.401Z,3.17
2023-04-04T01:26:41.999Z,3.50
2023-04-04T01:29:10.589Z,3.30
2023-04-04T01:31:41.411Z,3.00
2023-04-04T01:34:28.813Z,2.87
2023-04-04T01:37:05.128Z,3.43
2023-04-04T01:39:37.681Z,3.60
2023-04-04T01:42:08.612Z,3.57
2023-04-04T01:44:36.999Z,3.20
2023-04-04T01:47:08.689Z,3.40
2023-04-04T01:49:39.733Z,3.20
2023-04-04T01:52:09.630Z,3.13
2023-04-04T01:54:37.831Z,3.23
2023-04-04T01:57:07.862Z,3.60
2023-04-04T01:59:36.456Z,3.33
2023-04-04T02:02:05.122Z,3.30
2023-04-04T02:04:34.196Z,3.33
2023-04-04T02:07:02.602Z,3.30
2023-04-04T02:09:30.910Z,3.20
2023-04-04T02:12:00.015Z,3.50
2023-04-04T02:14:30.236Z,4.13
2023-04-04T02:17:01.339Z,3.33
2023-04-04T02:19:31.142Z,3.70
2023-04-04T02:21:59.510Z,3.23
2023-04-04T02:24:27.905Z,3.70
2023-04-04T02:26:56.729Z,3.53
2023-04-04T02:29:24.944Z,3.10
2023-04-04T02:31:54.775Z,3.17
2023-04-04T02:34:23.010Z,3.37
2023-04-04T02:36:54.556Z,4.03
2023-04-04T02:39:23.066Z,3.60
2023-04-04T02:41:51.358Z,3.50
2023-04-04T02:44:19.839Z,4.20
2023-04-04T02:46:48.531Z,3.17
2023-04-04T02:49:18.323Z,3.73
2023-04-04T02:51:46.804Z,3.80
2023-04-04T02:54:15.207Z,3.90
2023-04-04T02:56:43.385Z,3.73
2023-04-04T02:59:11.526Z,4.43
2023-04-04T03:01:39.948Z,3.77
2023-04-04T03:04:08.259Z,3.70
2023-04-04T03:06:38.219Z,3.43
2023-04-04T03:09:06.286Z,3.60
2023-04-04T03:11:34.552Z,3.93
2023-04-04T03:14:03.391Z,3.67
2023-04-04T03:16:31.796Z,3.80
2023-04-04T03:19:00.199Z,3.70
2023-04-04T03:21:28.653Z,3.43
2023-04-04T03:23:58.298Z,3.70
2023-04-04T03:26:28.354Z,3.70
2023-04-04T03:28:59.332Z,3.87
2023-04-04T03:31:27.805Z,3.73
2023-04-04T03:33:56.182Z,4.00
2023-04-04T03:36:24.604Z,4.60
2023-04-04T03:38:52.908Z,3.63
2023-04-04T03:41:22.623Z,4.57
2023-04-04T03:43:51.005Z,4.77
2023-04-04T03:46:19.549Z,4.70
2023-04-04T03:48:47.864Z,4.67
2023-04-04T03:51:16.231Z,5.00
2023-04-04T03:53:46.860Z,5.43
2023-04-04T03:56:16.159Z,7.70
2023-04-04T03:58:46.543Z,8.10
2023-04-04T04:01:14.966Z,9.07
2023-04-04T04:03:43.378Z,11.23
2023-04-04T04:06:13.354Z,14.20
2023-04-04T04:08:43.206Z,15.07
2023-04-04T04:11:14.381Z,15.80
2023-04-04T04:13:42.833Z,16.63
2023-04-04T04:16:13.030Z,15.93
2023-04-04T04:18:42.316Z,15.73
2023-04-04T04:21:10.611Z,15.63
2023-04-04T04:23:41.745Z,15.40
2023-04-04T04:26:11.915Z,15.17
2023-04-04T04:28:40.340Z,16.27
2023-04-04T04:31:09.277Z,18.20
2023-04-04T04:33:39.088Z,20.53
2023-04-04T04:36:09.879Z,19.80
2023-04-04T04:38:39.888Z,21.40
2023-04-04T04:41:08.235Z,22.90
2023-04-04T04:43:37.750Z,21.93
2023-04-04T04:46:06.100Z,18.87
2023-04-04T04:48:34.192Z,19.03
2023-04-04T04:51:04.365Z,18.00
2023-04-04T04:53:33.060Z,20.33
2023-04-04T04:56:01.693Z,20.80
2023-04-04T04:58:30.295Z,20.07
2023-04-04T05:00:58.903Z,19.77
2023-04-04T05:03:28.698Z,19.13
2023-04-04T05:06:05.019Z,19.00
2023-04-04T05:08:33.734Z,21.10
2023-04-04T05:11:03.944Z,22.90
2023-04-04T05:13:35.593Z,20.07
2023-04-04T05:16:05.037Z,18.97
2023-04-04T05:18:33.456Z,21.33
2023-04-04T05:21:03.720Z,23.23
2023-04-04T05:23:33.496Z,26.33
2023-04-04T05:26:01.884Z,25.50
2023-04-04T05:28:30.266Z,21.47
2023-04-04T05:30:58.725Z,18.73
2023-04-04T05:33:38.527Z,22.00
2023-04-04T05:36:08.789Z,25.77
2023-04-04T05:38:39.425Z,27.20
2023-04-04T05:41:07.588Z,26.27
2023-04-04T05:43:35.980Z,26.90
2023-04-04T05:46:07.486Z,30.83
2023-04-04T05:48:35.948Z,31.10
2023-04-04T05:51:04.698Z,31.63
2023-04-04T05:53:32.908Z,31.40
2023-04-04T05:56:05.577Z,32.53
2023-04-04T05:58:34.180Z,33.07
2023-04-04T06:01:03.229Z,32.23
2023-04-04T06:03:31.628Z,30.50
2023-04-04T06:06:00.195Z,31.00
2023-04-04T06:08:28.335Z,32.37
2023-04-04T06:10:59.151Z,33.83
2023-04-04T06:13:28.746Z,30.10
2023-04-04T06:15:59.475Z,27.67
2023-04-04T06:18:27.654Z,25.77
2023-04-04T06:20:56.074Z,25.47
2023-04-04T06:23:25.317Z,25.27
2023-04-04T06:25:57.891Z,22.43
2023-04-04T06:28:26.696Z,19.40
2023-04-04T06:30:58.583Z,19.77
2023-04-04T06:33:27.145Z,17.47
2023-04-04T06:35:55.907Z,18.30
2023-04-04T06:38:25.022Z,16.03
2023-04-04T06:40:55.910Z,15.87
2023-04-04T06:43:25.105Z,14.97
2023-04-04T06:45:53.693Z,13.57
2023-04-04T06:48:24.408Z,14.33
2023-04-04T06:50:52.757Z,12.07
2023-04-04T06:53:22.344Z,9.67
2023-04-04T06:55:52.341Z,7.80
2023-04-04T06:58:20.724Z,7.10
2023-04-04T07:00:50.301Z,6.20
2023-04-04T07:03:23.939Z,5.67
2023-04-04T07:05:56.774Z,5.40
2023-04-04T07:08:25.254Z,5.80
2023-04-04T07:10:53.836Z,5.23
2023-04-04T07:13:22.640Z,5.70
2023-04-04T07:15:51.105Z,5.23
2023-04-04T07:18:19.754Z,5.53
2023-04-04T07:20:53.016Z,5.10
2023-04-04T07:23:22.818Z,5.07
2023-04-04T07:25:51.298Z,4.70
2023-04-04T07:28:19.829Z,4.60
2023-04-04T07:30:48.829Z,4.50
2023-04-04T07:33:17.523Z,4.30
2023-04-04T07:35:45.754Z,4.67
2023-04-04T07:38:17.815Z,4.03
2023-04-04T07:40:48.486Z,4.13
2023-04-04T07:43:16.840Z,4.00
2023-04-04T07:45:45.710Z,3.93
2023-04-04T07:48:14.264Z,3.80
2023-04-04T07:50:44.445Z,3.63
2023-04-04T07:53:15.074Z,3.57
2023-04-04T07:55:56.375Z,3.90
2023-04-04T07:58:25.009Z,3.43
2023-04-04T08:00:53.832Z,4.30
2023-04-04T08:03:25.903Z,4.40
2023-04-04T08:05:54.790Z,3.73
2023-04-04T08:08:27.783Z,4.20
2023-04-04T08:10:58.628Z,3.40
2023-04-04T08:13:27.509Z,3.87
2023-04-04T08:15:56.300Z,3.80
2023-04-04T08:18:27.426Z,3.47
2023-04-04T08:21:04.774Z,2.93
2023-04-04T08:23:34.885Z,3.00
2023-04-04T08:26:03.793Z,2.83
2023-04-04T08:28:33.068Z,2.80
2023-04-04T08:31:02.223Z,3.03
2023-04-04T08:33:40.840Z,3.00
2023-04-04T08:36:15.472Z,2.90
2023-04-04T08:38:45.270Z,3.00
2023-04-04T08:41:15.903Z,2.93
2023-04-04T08:43:46.759Z,2.80
2023-04-04T08:46:16.881Z,3.20
2023-04-04T08:48:47.662Z,2.93
2023-04-04T08:51:17.972Z,2.70
2023-04-04T08:53:47.631Z,3.00
2023-04-04T08:56:16.424Z,2.90
2023-04-04T08:58:48.791Z,2.83
2023-04-04T09:01:17.621Z,3.03
2023-04-04T09:03:49.067Z,3.20
2023-04-04T09:06:19.451Z,3.33
2023-04-04T09:08:49.707Z,3.27
2023-04-04T09:11:20.818Z,3.00
2023-04-04T09:13:51.767Z,3.10
2023-04-04T09:16:20.839Z,3.10
2023-04-04T09:18:49.171Z,3.50
2023-04-04T09:21:18.554Z,2.90
2023-04-04T09:23:52.357Z,3.07
2023-04-04T09:26:20.913Z,3.40
2023-04-04T09:28:58.498Z,3.50
2023-04-04T09:31:27.534Z,3.13
2023-04-04T09:33:56.536Z,3.20
2023-04-04T09:36:27.294Z,3.10
2023-04-04T09:38:58.572Z,3.00
2023-04-04T09:41:27.773Z,3.37
2023-04-04T09:43:59.549Z,3.53
2023-04-04T09:46:32.537Z,2.90
2023-04-04T09:49:03.581Z,3.60
2023-04-04T09:51:37.517Z,3.50
2023-04-04T09:54:12.924Z,2.73
2023-04-04T09:56:45.092Z,3.23
2023-04-04T09:59:14.216Z,3.33
2023-04-04T10:01:45.811Z,3.10
2023-04-04T10:04:16.169Z,2.87
2023-04-04T10:06:45.833Z,3.40
2023-04-04T10:09:17.218Z,3.38
2023-04-04T10:11:47.311Z,3.10
2023-04-04T10:14:16.751Z,3.40
2023-04-04T10:16:46.880Z,3.20
2023-04-04T10:19:19.164Z,3.38
2023-04-04T10:21:48.289Z,3.60
2023-04-04T10:24:21.235Z,3.70
2023-04-04T10:26:49.800Z,3.50
2023-04-04T10:29:18.865Z,3.58
2023-04-04T10:31:51.254Z,3.85
2023-04-04T10:34:26.936Z,3.58
2023-04-04T10:37:07.609Z,3.50
2023-04-04T10:39:42.679Z,4.13
2023-04-04T10:42:16.365Z,3.53
2023-04-04T10:44:46.390Z,3.30
2023-04-04T10:47:18.447Z,3.20
2023-04-04T10:49:47.867Z,3.70
2023-04-04T10:52:18.171Z,3.10
2023-04-04T10:54:51.391Z,3.28
2023-04-04T10:57:20.105Z,2.92
2023-04-04T10:59:58.969Z,3.33
2023-04-04T11:02:47.317Z,3.22
2023-04-04T11:05:22.702Z,3.30
2023-04-04T11:08:07.637Z,3.47
2023-04-04T11:10:43.521Z,3.55
2023-04-04T11:13:15.331Z,3.22
2023-04-04T11:15:52.933Z,3.58
2023-04-04T11:20:58.459Z,3.40
2023-04-04T11:23:27.594Z,3.17
2023-04-04T11:25:59.765Z,3.25
2023-04-04T11:28:45.145Z,2.95
2023-04-04T11:31:32.816Z,3.30
2023-04-04T11:34:05.824Z,3.70
2023-04-04T11:36:54.636Z,3.67
2023-04-04T11:39:28.838Z,3.13
2023-04-04T11:42:03.855Z,3.67
2023-04-04T11:44:34.539Z,3.85
2023-04-04T11:47:05.511Z,3.80
2023-04-04T11:49:37.073Z,3.78
2023-04-04T11:52:10.397Z,3.20
2023-04-04T11:54:39.439Z,3.47
2023-04-04T11:57:09.923Z,3.20
2023-04-04T11:59:41.897Z,3.60
2023-04-04T12:02:11.301Z,3.83
2023-04-04T12:04:43.454Z,3.40
2023-04-04T12:07:12.654Z,3.42
2023-04-04T12:09:50.726Z,3.50
2023-04-04T12:12:22.423Z,3.70
2023-04-04T12:14:51.172Z,3.70
2023-04-04T12:17:19.560Z,3.60
2023-04-04T12:19:48.660Z,3.53
2023-04-04T12:22:16.946Z,3.60
2023-04-04T12:24:45.390Z,3.60
2023-04-04T12:27:14.003Z,3.50
2023-04-04T12:29:45.653Z,3.75
2023-04-04T12:32:15.545Z,4.00
2023-04-04T12:34:48.736Z,3.70
2023-04-04T12:37:19.694Z,3.80
2023-04-04T12:39:54.081Z,3.63
2023-04-04T12:42:24.578Z,4.18
2023-04-04T12:44:55.949Z,4.00
2023-04-04T12:47:26.491Z,3.97
2023-04-04T12:49:58.369Z,4.28
2023-04-04T12:52:32.873Z,3.70
2023-04-04T12:55:11.234Z,3.78
2023-04-04T12:57:40.823Z,3.58
2023-04-04T13:00:14.280Z,3.85
2023-04-04T13:02:47.515Z,3.67
2023-04-04T13:05:22.044Z,3.75
2023-04-04T13:07:50.494Z,3.88
2023-04-04T13:10:23.199Z,3.80
2023-04-04T13:12:59.014Z,3.70
2023-04-04T13:15:54.743Z,3.65
2023-04-04T13:18:25.647Z,4.53
2023-04-04T13:20:58.557Z,3.80
2023-04-04T13:23:28.179Z,3.55
2023-04-04T13:26:00.034Z,3.90
2023-04-04T13:28:28.858Z,4.15
2023-04-04T13:30:58.706Z,4.03
2023-04-04T13:33:27.176Z,3.47
2023-04-04T13:36:16.839Z,3.35
2023-04-04T13:38:45.233Z,3.33
2023-04-04T13:41:13.874Z,3.33
2023-04-04T13:43:42.093Z,3.70
2023-04-04T13:46:12.077Z,3.83
2023-04-04T13:48:43.407Z,3.35
2023-04-04T13:51:15.217Z,3.53
2023-04-04T13:53:45.215Z,3.58
2023-04-04T13:56:18.519Z,3.40
2023-04-04T13:58:47.656Z,3.95
2023-04-04T14:01:17.666Z,3.72
2023-04-04T14:03:46.466Z,3.70
2023-04-04T14:06:15.055Z,3.20
2023-04-04T14:08:43.553Z,3.53
2023-04-04T14:11:11.854Z,3.60
2023-04-04T14:13:40.436Z,3.25
2023-04-04T14:16:11.935Z,3.58
2023-04-04T14:18:42.510Z,3.45
2023-04-04T14:21:12.855Z,3.30
2023-04-04T14:23:41.359Z,3.80
2023-04-04T14:26:09.910Z,3.65
2023-04-04T14:29:00.006Z,3.55
2023-04-04T14:31:30.663Z,3.13
2023-04-04T14:34:00.961Z,3.60
2023-04-04T14:36:30.678Z,3.40
2023-04-04T14:38:59.472Z,3.65
2023-04-04T14:41:28.661Z,3.38
2023-04-04T14:44:00.163Z,3.38
2023-04-04T14:46:28.501Z,3.15
2023-04-04T14:49:01.249Z,2.88
2023-04-04T14:51:29.581Z,3.42
2023-04-04T14:53:57.914Z,3.58
2023-04-04T14:56:26.382Z,3.83
2023-04-04T14:58:58.242Z,3.42
2023-04-04T15:01:27.539Z,3.63
2023-04-04T15:03:56.673Z,3.47
2023-04-04T15:06:27.370Z,3.50
2023-04-04T15:08:58.102Z,3.25
2023-04-04T15:11:31.406Z,3.13
2023-04-04T15:13:59.637Z,3.67
2023-04-04T15:16:31.454Z,3.58
2023-04-04T15:19:01.815Z,3.47
2023-04-04T15:21:34.087Z,3.50
2023-04-04T15:24:20.898Z,3.60
2023-04-04T15:26:49.611Z,3.72
2023-04-04T15:29:17.927Z,4.65
2023-04-04T15:31:47.655Z,3.50
2023-04-04T15:34:16.360Z,3.30
2023-04-04T15:36:46.463Z,3.88
2023-04-04T15:39:14.799Z,3.45
2023-04-04T15:41:43.365Z,3.58
2023-04-04T15:44:11.806Z,3.50
2023-04-04T15:46:40.946Z,3.75
2023-04-04T15:49:09.324Z,3.70
2023-04-04T15:51:39.651Z,3.60
2023-04-04T15:54:11.164Z,3.90
2023-04-04T15:56:41.060Z,3.80
2023-04-04T15:59:13.199Z,3.72
2023-04-04T16:01:42.008Z,4.13
2023-04-04T16:04:10.736Z,3.40
2023-04-04T16:06:40.006Z,4.07
2023-04-04T16:09:08.754Z,3.83
2023-04-04T16:11:39.204Z,3.42
2023-04-04T16:14:11.039Z,3.65
2023-04-04T16:16:40.687Z,3.97
2023-04-04T16:19:09.306Z,4.05
2023-04-04T16:21:38.237Z,4.60
2023-04-04T16:24:06.956Z,4.82
2023-04-04T16:26:35.608Z,4.55
2023-04-04T16:29:05.729Z,4.72
2023-04-04T16:31:34.564Z,4.28
2023-04-04T16:34:04.066Z,5.28
2023-04-04T16:36:32.397Z,5.47
2023-04-04T16:39:00.782Z,4.25
2023-04-04T16:41:29.674Z,4.72
2023-04-04T16:44:00.043Z,4.95
2023-04-04T16:46:30.912Z,4.88
2023-04-04T16:48:59.351Z,4.72
2023-04-04T16:51:30.246Z,4.25
2023-04-04T16:53:58.581Z,4.65
2023-04-04T16:56:27.030Z,4.70
2023-04-04T16:58:56.014Z,5.40
2023-04-04T17:01:26.356Z,5.25
2023-04-04T17:03:59.881Z,5.18
2023-04-04T17:06:28.846Z,4.85
2023-04-04T17:08:59.728Z,4.70
2023-04-04T17:11:29.337Z,4.95
2023-04-04T17:13:58.243Z,5.00
2023-04-04T17:16:30.841Z,4.95
2023-04-04T17:19:01.030Z,4.70
2023-04-04T17:21:29.628Z,5.20
2023-04-04T17:24:03.425Z,5.22
2023-04-04T17:26:35.353Z,4.97
2023-04-04T17:29:04.287Z,7.13
2023-04-04T17:31:35.499Z,4.85
2023-04-04T17:34:05.525Z,5.80
2023-04-04T17:36:39.867Z,5.75
2023-04-04T17:39:11.690Z,5.15
2023-04-04T17:41:40.209Z,5.55
2023-04-04T17:44:08.823Z,5.75
2023-04-04T17:46:38.052Z,5.75
2023-04-04T17:49:08.310Z,5.03
2023-04-04T17:51:37.607Z,6.15
2023-04-04T17:54:09.226Z,5.93
2023-04-04T17:56:37.756Z,5.80
2023-04-04T17:59:06.502Z,5.65
2023-04-04T18:01:34.939Z,5.97
2023-04-04T18:04:03.236Z,5.80
2023-04-04T18:06:33.270Z,5.82
2023-04-04T18:09:01.653Z,6.25
2023-04-04T18:11:31.153Z,5.85
2023-04-04T18:13:59.365Z,5.95
2023-04-04T18:16:27.929Z,5.70
2023-04-04T18:19:01.926Z,6.50
2023-04-04T18:21:30.607Z,6.05
2023-04-04T18:24:00.510Z,6.32
2023-04-04T18:26:36.619Z,5.95
2023-04-04T18:29:05.057Z,5.90
2023-04-04T18:31:35.666Z,6.53
2023-04-04T18:34:04.510Z,6.38
2023-04-04T18:36:35.054Z,6.93
2023-04-04T18:39:05.171Z,6.70
2023-04-04T18:41:35.848Z,6.93
2023-04-04T18:44:06.509Z,6.38
2023-04-04T18:46:35.112Z,6.20
2023-04-04T18:49:03.471Z,6.57
2023-04-04T18:51:31.791Z,6.75
2023-04-04T18:54:00.284Z,6.85
2023-04-04T18:56:30.053Z,6.63
2023-04-04T18:58:58.820Z,6.63
2023-04-04T19:01:27.524Z,7.47
2023-04-04T19:03:57.174Z,7.10
2023-04-04T19:06:28.101Z,6.30
2023-04-04T19:09:04.214Z,7.37
2023-04-04T19:11:34.267Z,7.80
2023-04-04T19:14:02.480Z,7.20
2023-04-04T19:16:30.830Z,6.87
2023-04-04T19:18:59.156Z,8.60
2023-04-04T19:21:28.030Z,7.17
2023-04-04T19:23:59.337Z,7.03
2023-04-04T19:26:28.067Z,7.53
2023-04-04T19:29:07.504Z,7.40
2023-04-04T19:31:38.734Z,7.27
2023-04-04T19:34:09.784Z,7.63
2023-04-04T19:36:38.886Z,8.33
2023-04-04T19:39:10.645Z,8.57
2023-04-04T19:41:43.185Z,8.03
2023-04-04T19:44:20.639Z,7.87
2023-04-04T19:46:49.207Z,8.57
2023-04-04T19:49:17.883Z,8.33
2023-04-04T19:51:51.405Z,8.47
2023-04-04T19:54:24.890Z,8.00
2023-04-04T19:56:56.696Z,8.40
2023-04-04T19:59:55.628Z,7.80
2023-04-04T20:02:52.546Z,8.57
2023-04-04T20:05:53.703Z,9.10
2023-04-04T20:08:22.186Z,8.30
2023-04-04T20:10:52.058Z,8.50
2023-04-04T20:13:20.822Z,8.93
2023-04-04T20:16:04.824Z,8.93
2023-04-04T20:18:35.647Z,9.07
2023-04-04T20:21:09.106Z,9.50
2023-04-04T20:23:46.084Z,9.17
2023-04-04T20:26:16.524Z,9.73
2023-04-04T20:28:47.541Z,9.53
2023-04-04T20:31:19.758Z,10.07
2023-04-04T20:33:48.432Z,9.27
2023-04-04T20:36:33.070Z,9.93
2023-04-04T20:39:04.044Z,9.50
2023-04-04T20:41:32.392Z,9.73
2023-04-04T20:44:04.289Z,10.13
2023-04-04T20:46:39.379Z,9.37
2023-04-04T20:49:09.195Z,8.80
2023-04-04T20:51:37.980Z,9.70
2023-04-04T20:54:06.834Z,10.27
2023-04-04T20:56:58.046Z,9.20
2023-04-04T20:59:38.013Z,10.30
2023-04-04T21:02:16.875Z,9.87
2023-04-04T21:04:48.366Z,10.27
2023-04-04T21:07:36.783Z,9.57
2023-04-04T21:10:49.566Z,9.80
2023-04-04T21:13:20.193Z,10.10
2023-04-04T21:15:50.424Z,9.60
2023-04-04T21:18:27.415Z,8.93
2023-04-04T21:21:11.103Z,9.07
2023-04-04T21:23:46.553Z,8.47
2023-04-04T21:26:30.863Z,8.53
2023-04-04T21:29:00.702Z,8.17
2023-04-04T21:31:36.259Z,7.50
2023-04-04T21:34:12.080Z,7.80
2023-04-04T21:36:41.200Z,7.10
2023-04-04T21:39:12.852Z,7.20
2023-04-04T21:41:41.876Z,6.47
2023-04-04T21:44:10.918Z,6.90
2023-04-04T21:46:40.645Z,7.10
2023-04-04T21:49:11.197Z,7.07
2023-04-04T21:51:39.353Z,6.83
2023-04-04T21:54:07.974Z,7.33
2023-04-04T21:56:38.541Z,6.63
2023-04-04T21:59:09.085Z,6.30
2023-04-04T22:01:37.937Z,6.47
2023-04-04T22:04:06.254Z,7.30
2023-04-04T22:06:36.549Z,7.37
2023-04-04T22:09:05.734Z,6.43
2023-04-04T22:11:34.805Z,6.27
2023-04-04T22:14:07.314Z,6.77
2023-04-04T22:16:39.662Z,6.40
2023-04-04T22:19:11.192Z,6.47
2023-04-04T22:21:48.184Z,6.90
2023-04-04T22:24:18.499Z,7.23
2023-04-04T22:26:47.559Z,7.27
2023-04-04T22:29:17.954Z,7.00
2023-04-04T22:31:48.199Z,7.40
2023-04-04T22:34:16.826Z,7.20
2023-04-04T22:36:46.644Z,6.83
2023-04-04T22:39:16.303Z,6.53
2023-04-04T22:41:45.149Z,6.50
2023-04-04T22:44:13.421Z,5.97
2023-04-04T22:46:42.049Z,6.63
2023-04-04T22:49:10.321Z,6.73
2023-04-04T22:51:45.597Z,6.97
2023-04-04T22:54:17.180Z,7.07
2023-04-04T22:56:46.062Z,6.33
2023-04-04T22:59:14.879Z,7.20
2023-04-04T23:01:43.390Z,8.00
2023-04-04T23:04:11.918Z,7.93
2023-04-04T23:06:40.199Z,7.77
2023-04-04T23:09:09.039Z,8.50
2023-04-04T23:11:39.610Z,8.30
2023-04-04T23:14:09.499Z,7.53
2023-04-04T23:16:38.329Z,7.90
2023-04-04T23:19:06.747Z,8.70
2023-04-04T23:21:35.117Z,7.97
2023-04-04T23:24:03.925Z,8.00
2023-04-04T23:26:32.621Z,7.83
2023-04-04T23:29:03.229Z,8.83
2023-04-04T23:31:31.569Z,8.17
2023-04-04T23:34:00.229Z,9.03
2023-04-04T23:36:28.528Z,8.77
2023-04-04T23:38:59.670Z,10.03
2023-04-04T23:41:28.246Z,8.77
2023-04-04T23:43:57.533Z,8.80
2023-04-04T23:46:30.409Z,8.47
2023-04-04T23:48:58.876Z,9.00
2023-04-04T23:51:30.554Z,9.20
2023-04-04T23:54:01.561Z,8.83
2023-04-04T23:56:30.001Z,9.37
2023-04-04T23:58:58.247Z,9.50
